Airfield :
LOGIN :

Register | Disclaimer

   EN    FR    IT 

 










Legend :    VFR   Marginal VFR   IFR   Intensive IFR   Very Intensive IFR
Visi :
Ceiling :
>= 8 km
>= 3000ft
5 to 8 km
1000 to 3000 ft
1500m to 5 km
500 to 1000 ft
800 to 1500m
200 to 500 ft
< 800m
< 200 ft
Symbols :   Thunderstorms  Fog  Heavy snow  Heavy precipitations  Wind > 20 kt
SIGMETs :     Misc.  Thunderstorms  Icing  Turbulence  Mountain Waves  Volcanic Ashes







- Airport Elevation : 464 ft
- IATA code : EVX
- Download approach charts


LFOE - Evreux

CURRENT METAR :
  • 201730Z AUTO 34006KT 280V020 9999 FEW036 BKN054 24/15 Q1021 NOSIG

EXPIRED METARs :
  • 201700Z AUTO 35007KT 290V020 9999 FEW037 BKN043 OVC052 25/15 Q1021 NOSIG
  • 201630Z AUTO 32005KT 280V030 9999 FEW040 BKN049 25/15 Q1021 NOSIG
  • 201600Z AUTO 30008KT 260V010 9999 BKN037 OVC046 25/15 Q1021 NOSIG
  • 201530Z AUTO 34005KT 290V020 9999 BKN040 OVC046 26/15 Q1021 NOSIG
  • 201500Z AUTO 35006KT 310V030 9999 OVC037 25/15 Q1021 NOSIG

TAF TAF LFOE
Valid from the 20 at 15:00 until the 21 at 15:00 UTC


201400Z 2015/2115 30008KT 9999 SCT035
BECMG 2102/2104 BKN010
TEMPO 2104/2107 2000 DZ BR BKN005
BECMG 2108/2110 BKN020
No reported NOTAMs for that airfield.



MET'MAP, your aeronautical weather chart ! - Copyright ORBIFLY December 2007 - Disclaimer

ORBIFLY MET'MAP TEAM :

Programming & Development : Alexandra Zaïnal
Concept & Development : Baudouin d'Aumeries
Co-Development & Prog : Marc-Olivier Méhu
Technical & hardware support : Manuel Goepfert

Contact : metmap@orbifly.com




SOURCES & CREDITS :

   NOAA